createdAt,value
2022-10-14T00:05:50.347Z,96637.19
2022-10-14T00:10:53.887Z,96659.72
2022-10-14T00:15:58.972Z,96622.25
2022-10-14T00:21:09.293Z,96613.88
2022-10-14T00:26:26.102Z,96611.72
2022-10-14T00:31:29.562Z,96604.81
2022-10-14T00:36:31.921Z,96585.59
2022-10-14T00:41:35.799Z,96592.13
2022-10-14T00:46:44.694Z,96593.34
2022-10-14T00:51:55.064Z,96585.09
2022-10-14T00:56:57.570Z,96585.63
2022-10-14T01:02:00.008Z,96574.28
2022-10-14T01:07:05.479Z,96618.44
2022-10-14T01:12:46.233Z,96609.00
2022-10-14T01:18:07.971Z,96572.53
2022-10-14T01:23:40.291Z,96603.75
2022-10-14T03:25:05.973Z,96547.22
2022-10-14T03:30:47.868Z,96474.91
2022-10-14T05:19:03.022Z,96533.72
2022-10-14T05:29:53.931Z,96507.59
2022-10-14T05:34:56.410Z,96541.09
2022-10-14T05:46:50.217Z,96480.53
2022-10-14T05:51:52.677Z,96519.03
2022-10-14T05:57:07.466Z,96476.47
2022-10-14T06:02:10.345Z,96543.16
2022-10-14T06:07:14.595Z,96493.63
2022-10-14T06:28:54.966Z,96456.91
2022-10-14T06:33:57.340Z,96453.38
2022-10-14T06:38:59.550Z,96462.34
2022-10-14T06:44:04.747Z,96473.19
2022-10-14T06:49:07.265Z,96482.13
2022-10-14T06:54:09.641Z,96457.69
2022-10-14T06:59:12.086Z,96446.19
2022-10-14T07:04:14.496Z,96447.50
2022-10-14T07:09:16.785Z,96456.34
2022-10-14T07:14:19.886Z,96429.22
2022-10-14T07:19:22.028Z,96453.88
2022-10-14T07:24:24.304Z,96420.00
2022-10-14T07:29:26.459Z,96423.41
2022-10-14T07:34:31.064Z,96415.38
2022-10-14T07:39:34.226Z,96395.50
2022-10-14T07:44:42.440Z,96386.13
2022-10-14T07:49:45.171Z,96407.63
2022-10-14T07:54:47.641Z,96427.72
2022-10-14T08:00:02.235Z,96405.56
2022-10-14T08:05:50.419Z,96353.66
2022-10-14T08:11:01.565Z,96376.19
2022-10-14T08:16:34.421Z,96399.94
2022-10-14T08:21:37.132Z,96376.50
2022-10-14T08:27:00.953Z,96381.72
2022-10-14T08:32:03.332Z,96381.72
2022-10-14T08:37:05.615Z,96388.25
2022-10-14T08:42:50.666Z,96412.25
2022-10-14T08:47:56.137Z,96364.13
2022-10-14T08:53:12.435Z,96411.66
2022-10-14T08:58:38.878Z,96411.97
2022-10-14T09:03:42.515Z,96382.16
2022-10-14T09:08:48.104Z,96426.34
2022-10-14T09:13:55.815Z,96434.25
2022-10-14T09:19:01.595Z,96398.84
2022-10-14T09:24:15.429Z,96412.16
2022-10-14T09:29:49.209Z,96425.44
2022-10-14T09:35:04.881Z,96376.00
2022-10-14T09:40:38.404Z,96430.28
2022-10-14T09:45:58.991Z,96434.13
2022-10-14T09:51:06.131Z,96388.38
2022-10-14T09:56:10.861Z,96397.00
2022-10-14T10:01:25.335Z,96370.97
2022-10-14T10:41:50.133Z,96328.16
2022-10-14T10:53:38.039Z,96385.88
2022-10-14T10:59:12.569Z,96327.03
2022-10-14T11:04:30.352Z,96372.69
2022-10-14T11:10:00.867Z,96313.75
2022-10-14T11:15:26.761Z,96360.22
2022-10-14T11:21:04.584Z,96303.31
2022-10-14T11:26:39.785Z,96340.56
2022-10-14T11:38:01.313Z,96331.53
2022-10-14T11:50:03.873Z,96309.66
2022-10-14T11:55:25.503Z,96320.25
2022-10-14T12:00:32.992Z,96281.50
2022-10-14T12:05:35.451Z,96320.28
2022-10-14T12:10:48.156Z,96274.16
2022-10-14T12:15:52.909Z,96278.56
2022-10-14T12:21:13.622Z,96303.53
2022-10-14T12:26:22.851Z,96251.66
2022-10-14T12:31:28.488Z,96292.16
2022-10-14T12:36:32.736Z,96237.81
2022-10-14T12:41:38.022Z,96301.41
2022-10-14T12:46:48.392Z,96260.06
2022-10-14T12:51:56.624Z,96278.09
2022-10-14T12:57:05.795Z,96259.13
2022-10-14T13:02:35.537Z,96295.59
2022-10-14T13:07:46.306Z,96313.16
2022-10-14T13:12:50.295Z,96264.69
2022-10-14T13:17:52.879Z,96300.28
2022-10-14T13:23:15.626Z,96272.38
2022-10-14T13:28:35.950Z,96315.56
2022-10-14T13:33:51.865Z,96243.94
2022-10-14T13:38:59.407Z,96302.94
2022-10-14T13:44:02.884Z,96235.84
2022-10-14T13:49:08.463Z,96272.69
2022-10-14T13:54:26.274Z,96319.25
2022-10-14T13:59:44.400Z,96308.16
2022-10-14T14:05:01.179Z,96324.31
2022-10-14T14:10:08.495Z,96315.34
2022-10-14T14:15:37.340Z,96302.16
2022-10-14T14:20:39.882Z,96310.56
2022-10-14T14:26:01.284Z,96309.56
2022-10-14T14:31:05.154Z,96330.97
2022-10-14T14:36:18.203Z,96315.63
2022-10-14T14:41:32.569Z,96273.59
2022-10-14T14:46:38.420Z,96327.03
2022-10-14T14:51:42.357Z,96331.97
2022-10-14T14:56:55.170Z,96279.84
2022-10-14T15:07:06.944Z,96328.81
2022-10-14T15:12:15.989Z,96357.50
2022-10-14T15:17:48.159Z,96305.41
2022-10-14T15:23:38.125Z,96290.59
2022-10-14T15:42:33.203Z,96364.53
2022-10-14T15:53:12.419Z,96338.69
2022-10-14T16:38:47.672Z,96356.16
2022-10-14T16:43:50.283Z,96401.25
2022-10-14T16:48:54.419Z,96360.59
2022-10-14T16:53:56.602Z,96372.44
2022-10-14T16:59:00.575Z,96434.84
2022-10-14T17:04:02.994Z,96405.59
2022-10-14T17:09:15.978Z,96418.09
2022-10-14T17:14:37.334Z,96366.50
2022-10-14T17:19:43.733Z,96407.84
2022-10-14T17:24:46.493Z,96423.25
2022-10-14T17:29:48.864Z,96428.31
2022-10-14T17:34:53.465Z,96407.91
2022-10-14T17:39:56.106Z,96429.84
2022-10-14T17:45:19.897Z,96437.81
2022-10-14T17:50:23.142Z,96440.44
2022-10-14T17:55:44.056Z,96417.44
2022-10-14T18:00:46.751Z,96426.09
2022-10-14T18:05:51.124Z,96450.97
2022-10-14T18:10:59.067Z,96404.88
2022-10-14T18:16:12.860Z,96446.56
2022-10-14T18:21:24.528Z,96461.28
2022-10-14T18:26:49.347Z,96469.81
2022-10-14T18:36:54.115Z,96396.94
2022-10-14T18:41:56.606Z,96451.16
2022-10-14T18:46:59.035Z,96487.28
2022-10-14T18:52:01.297Z,96436.91
2022-10-14T18:57:12.323Z,96487.22
2022-10-14T19:02:21.429Z,96466.06
2022-10-14T19:07:29.820Z,96408.75
2022-10-14T19:12:43.568Z,96449.94
2022-10-14T19:17:52.247Z,96493.00
2022-10-14T19:29:13.102Z,96480.78
2022-10-14T19:34:58.433Z,96516.94
2022-10-14T19:40:40.025Z,96512.34
2022-10-14T19:46:11.251Z,96519.84
2022-10-14T21:39:11.757Z,96506.91
2022-10-14T22:01:24.041Z,96540.84
2022-10-14T22:06:28.023Z,96486.50
2022-10-14T22:11:33.495Z,96540.78
2022-10-14T22:16:36.549Z,96520.09
2022-10-14T22:21:40.834Z,96500.31
2022-10-14T22:26:43.181Z,96472.63
2022-10-14T22:31:46.681Z,96495.97
2022-10-14T22:36:49.100Z,96529.66
2022-10-14T22:41:51.753Z,96475.69
2022-10-14T22:46:54.039Z,96504.38
2022-10-14T22:52:01.567Z,96498.09
